• Join FlightAware (Why Join?)
  • Login
  • US Flag 
08:17PM EDT


 

Airport Tracker/Info


-or-


 

Live Flight TrackerFlight Track Log ✈ QXE570 ✈ 23-Apr-2012 ✈ KPDX - KSEA

Flight Track Log - Related Links

Times and Time Zones

All times are in EDT time to prevent confusion due to time zone crossing. See the QXE570 flight status page for this flight to view local times or setup timezone preferences in your user account.

Time Position Orientation Groundspeed Altitude Reporting Facility
EDT Latitude Longitude Course Direction KTS MPH feet Rate Location/Type
11:47AM 45.5919 -122.6106 294° West 129 148 700  Level Seattle Center
11:48AM 45.6014 -122.6403 298° West 143 165 1,600 1,620 Climbing Seattle Center
11:49AM 45.6261 -122.7067 335° Northwest 187 215 3,400 1,560 Climbing Seattle Center
11:50AM 45.6972 -122.7539 357° North 243 280 5,400 1,500 Climbing Seattle Center
11:51AM 45.7692 -122.7594 355° North 259 298 7,100 1,620 Climbing Seattle Center
11:52AM 45.8444 -122.7697 356° North 268 308 8,800 1,800 Climbing Seattle Center
11:53AM 45.9408 -122.7797 357° North 285 328 10,800 1,860 Climbing Seattle Center
11:54AM 46.0244 -122.7853 360° North 295 339 12,600 1,500 Climbing Seattle Center
11:55AM 46.1064 -122.7853 358° North 297 342 13,900 660 Climbing Seattle Center
11:56AM 46.1961 -122.7894 360° North 330 380 14,000  Climbing Seattle Center
11:57AM 46.2956 -122.7883 359° North 360 414 14,000  Level Seattle Center
11:58AM 46.3983 -122.7919 359° North 370 426 14,000  Level Seattle Center
11:59AM 46.5028 -122.7950 359° North 376 433 14,000  Level Seattle Center
12:00PM 46.6089 -122.7972 359° North 381 438 14,000  Level Seattle Center
12:01PM 46.7344 -122.8000 North 381 438 14,000 -480 Level Seattle Center
12:02PM 46.8381 -122.7886 North 378 435 13,100 -1,200 Descending Seattle Center
12:03PM 46.9389 -122.7692 11° North 370 426 11,600 -1,500 Descending Seattle Center
12:04PM 47.0581 -122.7342 50° Northeast 354 407 10,000 -1,320 Descending Seattle Center
12:05PM 47.1008 -122.6603 55° Northeast 318 366 9,000 -1,380 Descending Seattle Center
12:06PM 47.1481 -122.5617 55° Northeast 297 342 7,400 -1,560 Descending Seattle Center
12:07PM 47.1919 -122.4694 55° Northeast 283 326 5,900 -1,560 Descending Seattle Center
12:08PM 47.2403 -122.3683 39° Northeast 259 298 4,300 -1,320 Descending Seattle Center
12:09PM 47.2869 -122.3133 360° North 230 265 3,300 -1,020 Descending Seattle Center
12:10PM 47.3406 -122.3128 North 191 220 2,300 -900 Descending Seattle Center
12:11PM 47.3831 -122.3122 North 152 175 1,500 -780 Descending Seattle Center
12:12PM 47.4167 -122.3117 North 125 144 800 -600 Descending Seattle Center
12:13PM 47.4522 -122.3100 North 116 133 400 -420 Descending Seattle Center